Time;durP1;ratioP1;P1;durP2;ratioP2;P2;SDS_P1;SDS_P2;PMS_P1;PMS_P2;Temp;Humidity;BMP_temperature;BMP_pressure;BME280_temperature;BME280_humidity;BME280_pressure;Samples;Min_cycle;Max_cycle;Signal;HPM_P1;HPM_P2
2020/12/11 00:02:00;;;;;;;26.95;16.50;;;0.80;99.90;;;;;;5050545;28;20199;-84
2020/12/11 00:04:26;;;;;;;26.73;16.77;;;0.70;99.90;;;;;;5050487;28;20199;-81
2020/12/11 00:06:55;;;;;;;27.90;17.63;;;0.80;99.90;;;;;;5049600;28;20195;-83
2020/12/11 00:09:21;;;;;;;32.00;17.95;;;0.80;99.90;;;;;;5050674;28;20280;-82
2020/12/11 00:11:48;;;;;;;32.15;18.48;;;0.80;99.90;;;;;;5049504;28;20210;-84
2020/12/11 00:14:16;;;;;;;33.17;19.02;;;0.80;99.90;;;;;;5050081;28;20210;-83
2020/12/11 00:16:43;;;;;;;28.63;17.70;;;0.90;99.90;;;;;;5050088;28;20204;-83
2020/12/11 00:19:09;;;;;;;37.15;18.80;;;0.90;99.90;;;;;;5050609;28;20204;-83
2020/12/11 00:21:39;;;;;;;31.33;18.88;;;1.00;99.90;;;;;;5049611;28;20221;-82
2020/12/11 00:24:06;;;;;;;31.77;18.95;;;1.00;99.90;;;;;;5049176;28;20217;-82
2020/12/11 00:26:32;;;;;;;30.00;18.08;;;1.00;99.90;;;;;;5049897;28;20195;-84
2020/12/11 00:28:59;;;;;;;31.63;19.05;;;1.00;99.90;;;;;;5049262;28;20251;-83
2020/12/11 00:31:26;;;;;;;34.72;18.90;;;1.00;99.90;;;;;;5049103;28;20569;-82
2020/12/11 00:33:53;;;;;;;23.58;16.20;;;1.10;99.90;;;;;;5049360;28;20264;-82
2020/12/11 00:36:19;;;;;;;33.67;19.10;;;1.10;99.90;;;;;;5048652;28;20201;-83
2020/12/11 00:38:46;;;;;;;31.08;18.23;;;1.00;99.90;;;;;;5049700;28;20224;-80
2020/12/11 00:41:12;;;;;;;34.42;19.75;;;1.00;99.90;;;;;;5049627;28;20202;-82
2020/12/11 00:43:39;;;;;;;34.90;17.45;;;1.00;99.90;;;;;;5049468;28;20227;-82
2020/12/11 00:46:05;;;;;;;28.65;18.52;;;1.00;99.90;;;;;;5048692;28;20210;-82
2020/12/11 00:48:32;;;;;;;31.63;17.17;;;1.00;99.90;;;;;;5048993;28;20211;-83
2020/12/11 00:50:58;;;;;;;28.50;16.90;;;1.10;99.90;;;;;;5046660;28;20196;-82
2020/12/11 00:53:25;;;;;;;30.13;18.00;;;1.10;99.90;;;;;;5038720;28;20207;-83
2020/12/11 00:55:52;;;;;;;32.10;17.98;;;1.10;99.90;;;;;;5047912;28;20207;-81
2020/12/11 00:58:18;;;;;;;30.67;18.48;;;1.10;99.90;;;;;;5049087;28;20216;-83
2020/12/11 01:00:45;;;;;;;32.63;18.48;;;1.10;99.90;;;;;;5048809;28;20206;-82
2020/12/11 01:03:11;;;;;;;26.35;16.00;;;1.20;99.90;;;;;;5048145;28;20210;-83
2020/12/11 01:05:38;;;;;;;25.50;16.27;;;1.10;99.90;;;;;;5048075;28;20192;-79
2020/12/11 01:08:05;;;;;;;30.77;17.02;;;1.10;99.90;;;;;;5048473;28;20212;-82
2020/12/11 01:10:32;;;;;;;31.30;15.65;;;1.10;99.90;;;;;;5048360;28;20200;-80
2020/12/11 01:12:58;;;;;;;27.90;15.65;;;1.10;99.90;;;;;;5047631;28;20192;-83
2020/12/11 01:15:25;;;;;;;28.35;16.85;;;1.20;99.90;;;;;;5048779;28;20202;-84
2020/12/11 01:17:51;;;;;;;28.92;16.30;;;1.20;99.90;;;;;;5048369;28;20579;-82
2020/12/11 01:20:19;;;;;;;30.23;17.40;;;1.20;99.90;;;;;;5048105;28;20197;-81
2020/12/11 01:22:50;;;;;;;24.45;16.25;;;1.20;99.90;;;;;;5047210;28;20211;-82
2020/12/11 01:25:17;;;;;;;25.17;16.67;;;1.30;99.90;;;;;;5048280;28;20196;-84
2020/12/11 01:27:43;;;;;;;25.15;16.00;;;1.30;99.90;;;;;;5047174;28;20192;-82
2020/12/11 01:30:09;;;;;;;27.13;14.55;;;1.40;99.90;;;;;;5047312;28;20207;-83
2020/12/11 01:32:36;;;;;;;25.08;16.15;;;1.40;99.90;;;;;;5048272;28;20197;-83
2020/12/11 01:35:02;;;;;;;26.50;16.00;;;1.40;99.90;;;;;;5048134;28;20204;-84
2020/12/11 01:37:28;;;;;;;23.38;14.93;;;1.40;99.90;;;;;;5047870;28;20262;-83
2020/12/11 01:39:56;;;;;;;31.30;18.95;;;1.40;99.90;;;;;;5047902;28;20220;-83
2020/12/11 01:42:22;;;;;;;33.33;19.63;;;1.50;99.90;;;;;;5047760;28;20220;-83
2020/12/11 01:44:49;;;;;;;23.83;15.43;;;1.50;99.90;;;;;;5047255;28;20221;-83
2020/12/11 01:47:16;;;;;;;24.42;16.67;;;1.50;99.90;;;;;;5048829;28;20216;-83
2020/12/11 01:49:43;;;;;;;23.98;15.23;;;1.60;99.90;;;;;;5048810;28;20229;-81
2020/12/11 01:52:09;;;;;;;26.25;16.90;;;1.60;99.90;;;;;;5048375;28;20200;-83
2020/12/11 01:54:36;;;;;;;26.50;16.75;;;1.60;99.90;;;;;;5048578;28;20197;-83
2020/12/11 01:57:06;;;;;;;18.98;14.00;;;1.70;99.90;;;;;;5047660;28;20202;-83
2020/12/11 01:59:38;;;;;;;21.90;15.02;;;1.70;99.90;;;;;;5048070;28;20223;-84
2020/12/11 02:02:05;;;;;;;22.10;14.93;;;1.80;99.90;;;;;;5047909;28;20186;-83
2020/12/11 02:04:34;;;;;;;23.92;14.75;;;1.70;99.90;;;;;;5048173;28;20240;-82
2020/12/11 02:07:00;;;;;;;24.13;15.30;;;1.70;99.90;;;;;;5045872;28;20204;-82
2020/12/11 02:09:28;;;;;;;25.95;15.88;;;1.70;99.90;;;;;;5048119;28;20314;-82
2020/12/11 02:11:54;;;;;;;22.67;15.55;;;1.70;99.90;;;;;;5047784;28;20206;-82
2020/12/11 02:14:21;;;;;;;23.42;16.65;;;1.70;99.90;;;;;;5047669;28;20193;-84
2020/12/11 02:16:47;;;;;;;21.65;14.52;;;1.70;99.90;;;;;;5047390;28;20655;-82
2020/12/11 02:19:14;;;;;;;21.88;14.43;;;1.70;99.90;;;;;;5048343;28;20221;-84
2020/12/11 02:21:41;;;;;;;22.45;15.25;;;1.70;99.90;;;;;;5047427;28;20572;-82
2020/12/11 02:24:07;;;;;;;25.05;15.95;;;1.70;99.90;;;;;;5048513;28;20230;-83
2020/12/11 02:26:34;;;;;;;25.45;16.70;;;1.70;99.90;;;;;;5046958;28;20215;-82
2020/12/11 02:29:06;;;;;;;28.83;16.70;;;1.60;99.90;;;;;;5047159;28;20228;-80
2020/12/11 02:31:32;;;;;;;29.85;16.65;;;1.60;99.90;;;;;;5045570;28;20197;-81
2020/12/11 02:33:58;;;;;;;26.40;15.65;;;1.60;99.90;;;;;;5046237;28;20764;-82
2020/12/11 02:36:24;;;;;;;21.65;14.43;;;1.60;99.90;;;;;;5046614;28;20654;-82
2020/12/11 02:38:51;;;;;;;25.13;15.85;;;1.50;99.90;;;;;;5046406;28;20217;-84
2020/12/11 02:41:18;;;;;;;22.98;14.57;;;1.50;99.90;;;;;;5046784;28;20202;-82
2020/12/11 02:43:44;;;;;;;23.70;15.23;;;1.40;99.90;;;;;;5046355;28;20239;-81
2020/12/11 02:46:10;;;;;;;22.65;14.85;;;1.40;99.90;;;;;;5047437;28;20209;-83
2020/12/11 02:48:37;;;;;;;28.55;17.00;;;1.40;99.90;;;;;;5046662;28;20223;-82
2020/12/11 02:51:03;;;;;;;29.33;16.75;;;1.40;99.90;;;;;;5046776;28;20203;-83
2020/12/11 02:53:29;;;;;;;33.20;16.85;;;1.30;99.90;;;;;;5047252;28;20295;-83
2020/12/11 02:55:58;;;;;;;27.17;15.95;;;1.40;99.90;;;;;;5047185;28;20197;-83
2020/12/11 02:58:25;;;;;;;26.60;16.80;;;1.30;99.90;;;;;;5046146;28;20211;-84
2020/12/11 03:00:51;;;;;;;27.55;17.60;;;1.30;99.90;;;;;;5046853;28;20196;-84
2020/12/11 03:03:17;;;;;;;25.40;16.40;;;1.20;99.90;;;;;;5046978;28;20216;-83
2020/12/11 03:05:43;;;;;;;26.55;17.63;;;1.20;99.90;;;;;;5046648;28;20206;-82
2020/12/11 03:08:10;;;;;;;26.08;15.45;;;1.20;99.90;;;;;;5046954;28;20219;-84
2020/12/11 03:10:36;;;;;;;24.10;15.23;;;1.20;99.90;;;;;;5046133;28;20208;-83
2020/12/11 03:13:03;;;;;;;26.13;16.15;;;1.20;99.90;;;;;;5046221;28;20196;-83
2020/12/11 03:15:29;;;;;;;26.30;16.88;;;1.20;99.90;;;;;;5046299;28;20267;-85
2020/12/11 03:17:56;;;;;;;26.52;17.08;;;1.20;99.90;;;;;;5046158;28;20225;-85
2020/12/11 03:20:25;;;;;;;24.52;16.08;;;1.10;99.90;;;;;;5045804;28;20203;-83
2020/12/11 03:22:52;;;;;;;23.75;15.25;;;1.10;99.90;;;;;;5045698;28;20212;-83
2020/12/11 03:25:19;;;;;;;27.42;15.90;;;1.10;99.90;;;;;;5045950;28;20260;-82
2020/12/11 03:27:48;;;;;;;25.30;15.27;;;1.10;99.90;;;;;;5046064;28;20198;-83
2020/12/11 03:30:17;;;;;;;25.60;16.10;;;1.10;99.90;;;;;;5045971;28;20203;-81
2020/12/11 03:32:44;;;;;;;25.10;16.67;;;1.10;99.90;;;;;;5047263;28;20207;-84
2020/12/11 03:35:10;;;;;;;25.80;16.08;;;1.10;99.90;;;;;;5045760;28;20259;-84
2020/12/11 03:37:36;;;;;;;25.42;15.25;;;1.20;99.90;;;;;;5046050;28;20196;-82
2020/12/11 03:40:03;;;;;;;22.48;14.05;;;1.20;99.90;;;;;;5045959;28;20206;-82
2020/12/11 03:42:30;;;;;;;24.17;15.18;;;1.10;99.90;;;;;;5045625;28;20196;-82
2020/12/11 03:44:56;;;;;;;24.05;13.10;;;1.20;99.90;;;;;;5044423;28;20198;-83
2020/12/11 03:47:23;;;;;;;22.60;13.88;;;1.20;99.90;;;;;;5045530;28;20211;-84
2020/12/11 03:49:49;;;;;;;21.98;13.70;;;1.20;99.90;;;;;;5045373;28;20729;-81
2020/12/11 03:52:16;;;;;;;20.13;13.60;;;1.20;99.90;;;;;;5045796;28;20210;-84
2020/12/11 03:54:43;;;;;;;19.50;12.30;;;1.30;99.90;;;;;;5045916;28;20780;-82
2020/12/11 03:57:09;;;;;;;18.45;12.65;;;1.30;99.90;;;;;;5046000;28;20214;-83
2020/12/11 03:59:35;;;;;;;22.83;14.57;;;1.30;99.90;;;;;;5045552;28;20220;-83
2020/12/11 04:02:02;;;;;;;19.15;12.60;;;1.30;99.90;;;;;;5045252;28;20203;-83
2020/12/11 04:04:29;;;;;;;20.80;12.50;;;1.40;99.90;;;;;;5045201;28;20311;-83
2020/12/11 04:06:56;;;;;;;17.50;12.73;;;1.40;99.90;;;;;;5045146;28;20203;-82
2020/12/11 04:09:22;;;;;;;16.35;11.82;;;1.40;99.90;;;;;;5046339;28;20219;-82
2020/12/11 04:11:48;;;;;;;18.70;13.32;;;1.40;99.90;;;;;;5044955;28;20196;-82
2020/12/11 04:14:14;;;;;;;16.20;12.35;;;1.50;99.90;;;;;;5040097;28;20283;-83
2020/12/11 04:16:40;;;;;;;18.88;12.93;;;1.50;99.90;;;;;;5037251;28;20191;-83
2020/12/11 04:19:07;;;;;;;17.98;11.82;;;1.50;99.90;;;;;;5037140;28;20220;-81
2020/12/11 04:21:34;;;;;;;17.65;11.43;;;1.60;99.90;;;;;;5037538;28;20197;-82
2020/12/11 04:24:00;;;;;;;16.65;11.57;;;1.60;99.90;;;;;;5021126;28;20701;-82
2020/12/11 04:26:26;;;;;;;14.75;12.27;;;1.60;99.90;;;;;;5039438;28;20203;-82
2020/12/11 04:28:52;;;;;;;20.52;13.13;;;1.70;99.90;;;;;;5039377;28;20248;-81
2020/12/11 04:31:20;;;;;;;16.70;12.77;;;1.70;99.90;;;;;;5044119;28;20200;-82
2020/12/11 04:33:46;;;;;;;18.45;12.13;;;1.70;99.90;;;;;;5044537;28;20192;-82
2020/12/11 04:36:16;;;;;;;13.48;9.15;;;1.70;99.90;;;;;;5043410;28;20201;-81
2020/12/11 04:38:46;;;;;;;15.43;11.35;;;1.80;99.90;;;;;;5044271;28;20221;-83
2020/12/11 04:41:14;;;;;;;13.85;10.10;;;1.80;99.90;;;;;;5044666;28;20204;-80
2020/12/11 04:43:40;;;;;;;16.02;10.75;;;1.90;99.90;;;;;;5044196;28;20240;-81
2020/12/11 04:46:07;;;;;;;12.77;10.05;;;1.90;99.90;;;;;;5042869;28;20298;-82
2020/12/11 04:48:33;;;;;;;15.30;9.95;;;2.00;99.90;;;;;;5043923;28;20228;-81
2020/12/11 04:51:01;;;;;;;13.73;10.45;;;2.00;99.90;;;;;;5041976;28;20198;-81
2020/12/11 04:53:33;;;;;;;15.25;11.23;;;2.00;99.90;;;;;;5042804;28;20196;-82
2020/12/11 04:56:02;;;;;;;15.13;10.85;;;2.00;99.90;;;;;;5041662;28;20200;-82
2020/12/11 04:58:30;;;;;;;13.50;10.20;;;2.10;99.90;;;;;;5041588;28;20221;-81
2020/12/11 05:01:03;;;;;;;15.15;10.07;;;2.10;99.90;;;;;;5042962;28;20260;-81
2020/12/11 05:03:31;;;;;;;15.27;9.10;;;2.20;99.90;;;;;;5041659;28;20307;-82
2020/12/11 05:05:58;;;;;;;15.65;10.90;;;2.20;99.90;;;;;;5038296;28;20191;-82
2020/12/11 05:08:24;;;;;;;15.60;10.32;;;2.10;99.90;;;;;;5039264;28;20503;-82
2020/12/11 05:10:51;;;;;;;14.60;9.63;;;2.10;99.90;;;;;;5039254;28;20196;-81
2020/12/11 05:13:22;;;;;;;17.23;9.82;;;2.10;99.90;;;;;;5038818;28;20187;-83
2020/12/11 05:16:06;;;;;;;18.35;12.73;;;2.00;99.90;;;;;;5039629;28;20195;-85
2020/12/11 05:18:33;;;;;;;10.90;7.97;;;2.00;99.90;;;;;;5040067;28;20216;-82
2020/12/11 05:21:14;;;;;;;12.05;9.05;;;2.00;99.90;;;;;;5043117;28;20199;-80
2020/12/11 05:23:55;;;;;;;16.88;10.90;;;2.00;99.90;;;;;;5043374;28;20241;-82
2020/12/11 05:26:21;;;;;;;13.35;11.07;;;2.00;99.90;;;;;;5044142;28;20184;-81
2020/12/11 05:28:48;;;;;;;16.23;12.10;;;2.00;99.90;;;;;;5043319;28;20331;-81
2020/12/11 05:31:16;;;;;;;16.77;11.52;;;2.00;99.90;;;;;;5043968;28;20197;-81
2020/12/11 05:34:01;;;;;;;16.40;10.50;;;2.00;99.90;;;;;;5043733;28;20197;-81
2020/12/11 05:36:29;;;;;;;22.33;11.45;;;1.90;99.90;;;;;;5044548;28;20179;-82
2020/12/11 05:38:55;;;;;;;15.50;10.98;;;1.90;99.90;;;;;;5043104;28;20247;-82
2020/12/11 05:41:34;;;;;;;16.33;11.52;;;1.90;99.90;;;;;;5042401;28;20204;-80
2020/12/11 05:44:01;;;;;;;13.55;9.88;;;1.90;99.90;;;;;;5042234;28;20236;-81
2020/12/11 05:46:31;;;;;;;13.27;10.85;;;1.90;99.90;;;;;;5042724;28;20197;-81
2020/12/11 05:48:58;;;;;;;17.13;10.95;;;1.90;99.90;;;;;;5039646;28;20219;-81
2020/12/11 05:51:33;;;;;;;16.75;11.45;;;1.90;99.90;;;;;;5039140;28;20198;-81
2020/12/11 05:54:04;;;;;;;16.08;11.90;;;1.90;99.90;;;;;;5043220;28;20201;-80
2020/12/11 05:56:32;;;;;;;14.48;11.27;;;1.80;99.90;;;;;;5041694;28;20187;-79
2020/12/11 05:58:59;;;;;;;16.75;11.75;;;1.90;99.90;;;;;;5044009;28;20213;-81
2020/12/11 06:01:26;;;;;;;16.83;11.73;;;1.90;99.90;;;;;;5044966;28;20194;-80
2020/12/11 06:03:54;;;;;;;18.25;10.80;;;1.90;99.90;;;;;;5043912;28;20574;-80
2020/12/11 06:06:24;;;;;;;13.05;10.40;;;1.90;99.90;;;;;;5043055;28;20210;-83
2020/12/11 06:08:53;;;;;;;16.60;11.40;;;1.90;99.90;;;;;;5044952;28;20236;-83
2020/12/11 06:11:22;;;;;;;16.98;11.23;;;2.00;99.90;;;;;;5045891;28;20208;-81
2020/12/11 06:13:54;;;;;;;16.50;10.55;;;2.00;99.90;;;;;;5042635;28;20204;-79
2020/12/11 06:16:22;;;;;;;16.67;11.23;;;2.00;99.90;;;;;;5043585;28;20573;-81
2020/12/11 06:18:54;;;;;;;15.95;11.63;;;2.00;99.90;;;;;;5042874;28;20217;-81
2020/12/11 06:21:21;;;;;;;14.50;11.55;;;2.00;99.90;;;;;;5042973;28;20608;-80
2020/12/11 06:23:47;;;;;;;14.98;11.10;;;2.00;99.90;;;;;;5042790;28;20226;-81
2020/12/11 06:26:15;;;;;;;15.82;10.50;;;2.10;99.90;;;;;;5043031;28;20600;-79
2020/12/11 06:28:45;;;;;;;15.00;10.40;;;2.10;99.90;;;;;;5043280;28;20222;-81
2020/12/11 06:31:13;;;;;;;16.90;11.13;;;2.10;99.90;;;;;;5044901;28;20704;-81
2020/12/11 06:33:41;;;;;;;17.90;12.05;;;2.10;99.90;;;;;;5043981;28;20196;-82
2020/12/11 06:36:09;;;;;;;16.63;11.35;;;2.10;99.90;;;;;;5042132;28;20201;-83
2020/12/11 06:38:53;;;;;;;15.50;12.02;;;2.10;99.90;;;;;;5039048;28;20338;-81
2020/12/11 06:41:38;;;;;;;14.80;11.38;;;2.10;99.90;;;;;;5037474;28;20208;-83
2020/12/11 06:44:16;;;;;;;18.38;12.30;;;2.10;99.90;;;;;;5040621;28;20241;-83
2020/12/11 06:46:43;;;;;;;15.60;11.00;;;2.10;99.90;;;;;;5037992;28;20181;-82
2020/12/11 06:49:11;;;;;;;17.05;10.77;;;2.10;99.90;;;;;;5038538;28;20217;-84
2020/12/11 06:52:13;;;;;;;15.23;11.88;;;2.10;99.90;;;;;;5037089;28;20223;-85
2020/12/11 06:54:55;;;;;;;17.75;10.80;;;2.10;99.90;;;;;;5041980;28;20202;-83
2020/12/11 06:57:40;;;;;;;17.50;13.05;;;2.10;99.90;;;;;;5042461;28;20210;-82
2020/12/11 07:00:30;;;;;;;15.45;10.48;;;2.10;99.90;;;;;;5042341;28;20232;-82
2020/12/11 07:03:13;;;;;;;17.75;11.25;;;2.10;99.90;;;;;;5041130;28;20196;-81
2020/12/11 07:05:39;;;;;;;15.38;10.90;;;2.10;99.90;;;;;;5037012;28;20227;-82
2020/12/11 07:08:12;;;;;;;19.17;13.07;;;2.10;99.90;;;;;;5040211;28;20218;-83
2020/12/11 07:10:38;;;;;;;16.92;11.10;;;2.00;99.90;;;;;;5047633;28;20182;-81
2020/12/11 07:13:07;;;;;;;17.52;12.48;;;2.00;99.90;;;;;;5046041;28;20204;-80
2020/12/11 07:15:34;;;;;;;23.45;11.63;;;2.00;99.90;;;;;;5045843;28;20200;-82
2020/12/11 07:18:00;;;;;;;18.25;11.80;;;2.10;99.90;;;;;;5045152;28;20232;-81
2020/12/11 07:20:27;;;;;;;18.83;11.50;;;2.10;99.90;;;;;;5044989;28;20205;-81
2020/12/11 07:22:59;;;;;;;18.40;13.50;;;2.10;99.90;;;;;;5042591;28;20204;-80
2020/12/11 07:25:27;;;;;;;18.05;12.80;;;2.20;99.90;;;;;;5036869;28;20191;-81
2020/12/11 07:27:57;;;;;;;13.93;10.73;;;2.20;99.90;;;;;;5042748;28;20284;-81
2020/12/11 07:30:24;;;;;;;14.30;10.95;;;2.20;99.90;;;;;;5043096;28;20182;-81
2020/12/11 07:32:53;;;;;;;17.52;12.32;;;2.20;99.90;;;;;;5043121;28;20206;-81
2020/12/11 07:35:20;;;;;;;16.55;11.90;;;2.20;99.90;;;;;;5042692;28;20248;-80
2020/12/11 07:37:51;;;;;;;15.35;11.32;;;2.20;99.90;;;;;;5043438;28;20746;-82
2020/12/11 07:40:18;;;;;;;16.27;12.52;;;2.30;99.90;;;;;;5043182;28;20197;-82
2020/12/11 07:42:46;;;;;;;16.23;11.75;;;2.30;99.90;;;;;;5043063;28;20209;-81
2020/12/11 07:45:23;;;;;;;16.02;11.73;;;2.30;99.90;;;;;;5035661;28;20217;-82
2020/12/11 07:47:49;;;;;;;17.50;12.20;;;2.30;99.90;;;;;;5043813;28;20654;-82
2020/12/11 07:50:16;;;;;;;18.30;11.88;;;2.40;99.90;;;;;;5043212;28;20197;-81
2020/12/11 07:52:42;;;;;;;15.27;10.60;;;2.40;99.90;;;;;;5042668;28;20199;-81
2020/12/11 07:55:11;;;;;;;16.08;10.77;;;2.50;99.90;;;;;;5042942;28;20198;-80
2020/12/11 07:57:37;;;;;;;21.70;14.00;;;2.50;99.90;;;;;;5042812;28;20194;-80
2020/12/11 08:00:07;;;;;;;14.13;10.98;;;2.60;99.90;;;;;;5044148;28;20262;-81
2020/12/11 08:02:34;;;;;;;18.30;12.80;;;2.70;99.90;;;;;;5043008;28;20199;-80
2020/12/11 08:05:04;;;;;;;15.65;11.30;;;2.90;99.90;;;;;;5044495;28;20254;-80
2020/12/11 08:07:31;;;;;;;14.88;11.23;;;3.00;99.90;;;;;;5046745;28;20209;-82
2020/12/11 08:10:08;;;;;;;16.80;11.77;;;3.10;99.90;;;;;;5047472;28;20219;-81
2020/12/11 08:12:34;;;;;;;16.95;11.60;;;3.20;99.90;;;;;;5046604;28;20198;-81
2020/12/11 08:15:01;;;;;;;20.52;12.90;;;3.30;99.90;;;;;;5046716;28;20238;-80
2020/12/11 08:17:30;;;;;;;14.80;10.63;;;3.40;99.90;;;;;;5045723;28;20209;-82
2020/12/11 08:20:00;;;;;;;14.60;11.60;;;3.30;99.90;;;;;;5047379;28;20221;-81
2020/12/11 08:22:42;;;;;;;13.88;8.43;;;3.30;99.90;;;;;;5048225;28;20210;-81
2020/12/11 08:25:18;;;;;;;15.43;10.90;;;3.20;99.90;;;;;;5049138;28;20794;-80
2020/12/11 08:27:45;;;;;;;14.88;10.63;;;3.20;99.90;;;;;;5046784;28;20258;-81
2020/12/11 08:30:13;;;;;;;12.63;9.48;;;3.20;99.90;;;;;;5048280;28;20184;-81
2020/12/11 08:32:40;;;;;;;19.05;12.18;;;3.10;99.90;;;;;;5047772;28;20218;-80
2020/12/11 08:35:14;;;;;;;14.98;10.82;;;3.10;99.90;;;;;;5049085;28;20201;-79
2020/12/11 08:37:51;;;;;;;14.68;11.65;;;3.20;99.90;;;;;;5050645;28;20196;-81
2020/12/11 08:40:17;;;;;;;19.33;13.35;;;3.20;99.90;;;;;;5049878;28;20201;-81
2020/12/11 08:43:04;;;;;;;16.15;12.02;;;3.30;99.90;;;;;;5044314;28;20289;-81
2020/12/11 08:45:33;;;;;;;13.27;10.13;;;3.40;99.90;;;;;;5042504;28;20194;-80
2020/12/11 08:48:12;;;;;;;17.05;11.77;;;3.30;99.90;;;;;;5041539;28;20245;-80
2020/12/11 08:50:42;;;;;;;16.88;11.00;;;3.30;99.90;;;;;;5046964;28;20190;-81
2020/12/11 08:53:10;;;;;;;14.98;10.70;;;3.30;99.90;;;;;;5047149;28;20198;-81
2020/12/11 08:55:37;;;;;;;19.20;11.38;;;3.40;99.90;;;;;;5046687;28;20210;-81
2020/12/11 08:58:03;;;;;;;13.52;10.23;;;3.50;99.90;;;;;;5090240;22;20226;-78
2020/12/11 09:00:30;;;;;;;15.23;11.38;;;3.50;99.90;;;;;;4997941;28;20201;-77
2020/12/11 09:02:56;;;;;;;14.27;10.88;;;3.60;99.90;;;;;;5012952;28;20199;-78
2020/12/11 09:05:25;;;;;;;12.48;9.95;;;3.60;99.90;;;;;;5015300;28;20577;-79
2020/12/11 09:07:51;;;;;;;12.55;9.27;;;3.60;99.90;;;;;;5014882;28;20612;-78
2020/12/11 09:10:18;;;;;;;14.68;9.77;;;3.60;99.90;;;;;;5015602;28;20326;-78
2020/12/11 09:12:46;;;;;;;15.27;10.48;;;3.60;99.90;;;;;;5015771;28;20208;-79
2020/12/11 09:15:13;;;;;;;12.27;9.65;;;3.70;99.90;;;;;;5017564;28;20736;-79
2020/12/11 09:17:39;;;;;;;12.30;9.40;;;3.70;99.90;;;;;;5016420;28;20329;-79
2020/12/11 09:20:06;;;;;;;11.32;9.63;;;3.80;99.90;;;;;;5015172;28;20222;-77
2020/12/11 09:22:34;;;;;;;11.82;10.30;;;3.80;99.90;;;;;;5016627;28;20200;-76
2020/12/11 09:25:00;;;;;;;14.82;9.57;;;3.80;99.90;;;;;;5015334;28;20234;-78
2020/12/11 09:27:26;;;;;;;11.98;9.25;;;3.90;99.90;;;;;;5014753;28;20209;-79
2020/12/11 09:29:55;;;;;;;10.75;8.77;;;3.90;99.90;;;;;;5017166;28;20225;-78
2020/12/11 09:32:30;;;;;;;11.68;9.52;;;3.90;99.90;;;;;;5015042;28;20610;-78
2020/12/11 09:34:57;;;;;;;12.73;10.32;;;3.80;99.90;;;;;;5014768;28;20581;-78
2020/12/11 09:37:23;;;;;;;10.70;8.32;;;3.90;99.90;;;;;;5014620;28;20203;-78
2020/12/11 09:39:50;;;;;;;12.68;10.20;;;4.00;99.90;;;;;;5014887;28;20573;-79
2020/12/11 09:42:34;;;;;;;11.93;9.23;;;4.10;99.90;;;;;;5016024;28;20629;-78
2020/12/11 09:45:16;;;;;;;10.98;8.55;;;4.00;99.90;;;;;;5016617;28;20215;-78
2020/12/11 09:50:39;;;;;;;10.98;7.75;;;4.00;99.90;;;;;;5010349;28;20325;-79
2020/12/11 09:53:14;;;;;;;16.30;10.10;;;4.10;99.90;;;;;;5016480;28;20214;-78
2020/12/11 09:55:43;;;;;;;12.18;9.95;;;4.20;99.90;;;;;;5016522;28;20774;-79
2020/12/11 09:58:09;;;;;;;13.55;9.13;;;4.20;99.90;;;;;;5017657;28;20776;-79
2020/12/11 10:00:39;;;;;;;11.48;8.70;;;4.20;99.90;;;;;;5016632;28;20192;-80
2020/12/11 10:03:08;;;;;;;11.85;9.13;;;4.30;99.90;;;;;;5016511;28;20208;-78
2020/12/11 10:05:34;;;;;;;13.30;8.80;;;4.40;99.90;;;;;;5015778;28;20208;-79
2020/12/11 10:08:00;;;;;;;12.05;9.20;;;4.40;99.90;;;;;;5016204;28;20220;-80
2020/12/11 10:10:26;;;;;;;13.40;9.13;;;4.40;99.90;;;;;;5016601;28;20238;-79
2020/12/11 10:12:54;;;;;;;10.35;7.85;;;4.60;99.90;;;;;;5015805;28;20205;-79
2020/12/11 10:15:20;;;;;;;11.70;8.20;;;4.70;99.90;;;;;;5015690;28;20199;-77
2020/12/11 10:17:47;;;;;;;9.95;8.10;;;4.80;99.90;;;;;;5013913;28;20223;-78
2020/12/11 10:20:18;;;;;;;14.68;9.18;;;4.90;99.90;;;;;;5014119;28;20192;-78
2020/12/11 10:22:45;;;;;;;11.07;8.32;;;5.20;99.90;;;;;;5014420;28;20241;-78
2020/12/11 10:25:12;;;;;;;10.75;8.93;;;5.20;99.90;;;;;;5013501;28;20216;-78
2020/12/11 10:27:38;;;;;;;10.50;7.80;;;5.20;99.90;;;;;;5013925;28;20624;-78
2020/12/11 10:30:05;;;;;;;11.55;8.77;;;5.20;99.90;;;;;;5023751;28;20203;-78
2020/12/11 10:32:31;;;;;;;10.35;8.30;;;5.10;99.90;;;;;;5015890;28;20551;-79
2020/12/11 10:34:58;;;;;;;9.52;7.75;;;5.20;99.90;;;;;;5017915;28;20569;-80
2020/12/11 10:37:24;;;;;;;7.82;7.03;;;5.10;99.90;;;;;;5016629;28;20196;-78
2020/12/11 10:39:50;;;;;;;10.68;7.50;;;5.00;99.90;;;;;;5016875;28;20203;-79
2020/12/11 10:42:16;;;;;;;10.20;7.53;;;4.80;99.90;;;;;;5015602;28;20211;-79
2020/12/11 10:44:43;;;;;;;9.70;6.93;;;4.80;99.90;;;;;;5015991;28;20219;-78
2020/12/11 10:47:10;;;;;;;11.43;8.35;;;4.90;99.90;;;;;;5015272;28;20196;-78
2020/12/11 10:49:36;;;;;;;10.85;8.82;;;4.80;99.90;;;;;;5013643;28;20215;-78
2020/12/11 10:52:02;;;;;;;10.57;7.32;;;4.70;99.90;;;;;;5014206;28;20206;-78
2020/12/11 10:54:28;;;;;;;11.55;7.63;;;4.60;99.90;;;;;;5015402;28;20195;-74
2020/12/11 10:56:55;;;;;;;11.90;8.60;;;4.70;99.90;;;;;;5015230;28;20202;-78
2020/12/11 10:59:21;;;;;;;9.43;6.90;;;4.70;99.90;;;;;;5017786;28;20234;-76
2020/12/11 11:01:48;;;;;;;10.93;9.38;;;4.70;99.90;;;;;;5015387;28;20204;-79
2020/12/11 11:04:16;;;;;;;13.20;9.13;;;4.70;99.90;;;;;;5015694;28;20227;-78
2020/12/11 11:06:45;;;;;;;10.73;7.68;;;4.70;99.90;;;;;;5016121;28;20287;-78
2020/12/11 11:09:19;;;;;;;11.90;8.68;;;4.70;99.90;;;;;;5015167;28;20266;-78
2020/12/11 11:11:49;;;;;;;12.63;8.63;;;4.70;99.90;;;;;;5016417;28;20269;-78
2020/12/11 11:14:23;;;;;;;9.38;8.27;;;4.80;99.90;;;;;;5015787;28;20226;-78
2020/12/11 11:19:36;;;;;;;11.35;9.40;;;4.90;99.90;;;;;;5013661;28;20204;-79
2020/12/11 11:27:32;;;;;;;10.75;8.55;;;4.80;99.90;;;;;;5012461;28;20265;-77
2020/12/11 11:29:58;;;;;;;11.00;8.27;;;4.80;99.90;;;;;;5010940;28;20199;-77
2020/12/11 11:32:24;;;;;;;12.85;7.90;;;4.80;99.90;;;;;;5013060;28;20227;-77
2020/12/11 11:34:51;;;;;;;11.52;6.65;;;4.80;99.90;;;;;;5014252;28;20203;-77
2020/12/11 11:37:18;;;;;;;10.95;8.50;;;4.70;99.90;;;;;;5015124;28;20196;-76
2020/12/11 11:39:44;;;;;;;14.00;7.72;;;4.70;99.90;;;;;;5015844;28;20191;-77
2020/12/11 11:42:10;;;;;;;11.50;9.05;;;4.70;99.90;;;;;;5017404;28;20601;-79
2020/12/11 11:44:49;;;;;;;10.02;7.97;;;4.80;99.90;;;;;;5016511;28;20212;-79
2020/12/11 11:47:15;;;;;;;12.15;8.13;;;4.90;99.90;;;;;;5016878;28;20287;-78
2020/12/11 11:49:55;;;;;;;9.07;6.97;;;5.00;99.90;;;;;;5013264;28;20219;-77
2020/12/11 11:52:26;;;;;;;10.07;8.18;;;5.00;99.90;;;;;;5016654;28;20195;-79
2020/12/11 11:54:53;;;;;;;13.45;9.00;;;5.10;99.90;;;;;;5016159;28;20180;-77
2020/12/11 11:57:19;;;;;;;8.90;7.35;;;5.20;99.90;;;;;;5016501;28;20203;-77
2020/12/11 11:59:45;;;;;;;10.07;8.15;;;5.20;99.90;;;;;;5018961;28;20208;-78
2020/12/11 12:02:11;;;;;;;11.70;8.20;;;5.00;99.90;;;;;;4997218;28;20201;-79
2020/12/11 12:04:37;;;;;;;11.70;7.53;;;4.80;99.90;;;;;;4997386;28;20224;-79
2020/12/11 12:07:04;;;;;;;12.50;8.25;;;4.60;99.90;;;;;;4996932;28;20218;-80
2020/12/11 12:09:31;;;;;;;11.77;9.13;;;4.40;99.90;;;;;;4998314;28;20220;-79
2020/12/11 12:11:57;;;;;;;13.90;10.45;;;4.30;99.90;;;;;;4999074;28;20200;-78
2020/12/11 12:14:23;;;;;;;12.65;8.52;;;4.30;99.90;;;;;;4996838;28;20200;-79
2020/12/11 12:16:51;;;;;;;13.18;9.27;;;4.20;99.90;;;;;;4996806;28;20199;-78
2020/12/11 12:19:25;;;;;;;15.23;10.13;;;4.20;99.90;;;;;;4997336;28;20213;-79
2020/12/11 12:27:26;;;;;;;12.85;9.18;;;4.10;99.90;;;;;;5001742;28;20347;-76
2020/12/11 12:29:54;;;;;;;17.70;9.88;;;4.10;99.90;;;;;;5023612;28;20201;-79
2020/12/11 12:32:22;;;;;;;17.33;10.98;;;4.20;99.90;;;;;;5021390;28;20192;-80
2020/12/11 12:34:51;;;;;;;17.02;10.10;;;4.10;99.90;;;;;;5022472;28;20191;-79
2020/12/11 12:37:31;;;;;;;13.07;8.95;;;4.10;99.90;;;;;;5021220;28;20195;-79
2020/12/11 12:45:23;;;;;;;12.48;8.52;;;4.20;99.90;;;;;;5021140;28;20203;-78
2020/12/11 12:47:49;;;;;;;13.20;9.73;;;4.20;99.90;;;;;;5020431;28;20220;-78
2020/12/11 12:50:15;;;;;;;10.18;8.27;;;4.20;99.90;;;;;;5020121;28;20207;-79
2020/12/11 12:52:42;;;;;;;11.65;8.50;;;4.30;99.90;;;;;;5020045;28;20200;-79
2020/12/11 12:55:09;;;;;;;10.57;8.13;;;4.40;99.90;;;;;;5020498;28;20196;-77
2020/12/11 12:57:38;;;;;;;13.27;7.47;;;4.40;99.90;;;;;;5017026;28;20227;-80
2020/12/11 13:00:15;;;;;;;12.30;8.90;;;4.40;99.90;;;;;;5016718;28;20672;-78
2020/12/11 13:05:22;;;;;;;10.43;8.32;;;4.50;99.90;;;;;;5015127;28;20234;-77
2020/12/11 13:07:49;;;;;;;11.60;8.43;;;4.50;99.90;;;;;;5017766;28;20581;-77
2020/12/11 13:10:16;;;;;;;11.82;8.65;;;4.60;99.90;;;;;;5021402;28;20681;-80
2020/12/11 13:12:44;;;;;;;12.70;9.10;;;4.60;99.90;;;;;;5021741;28;20685;-79